createdAt,value
2018-11-05T00:02:12.937Z,13.35
2018-11-05T00:04:44.616Z,13.78
2018-11-05T00:07:11.938Z,14.68
2018-11-05T00:09:39.447Z,13.98
2018-11-05T00:12:07.247Z,14.30
2018-11-05T00:14:34.779Z,13.78
2018-11-05T00:17:02.278Z,16.23
2018-11-05T00:19:29.884Z,14.20
2018-11-05T00:21:57.296Z,14.13
2018-11-05T00:24:25.047Z,13.60
2018-11-05T00:26:52.476Z,15.40
2018-11-05T00:29:20.154Z,15.78
2018-11-05T00:31:47.659Z,13.65
2018-11-05T00:34:15.243Z,15.28
2018-11-05T00:36:47.168Z,14.63
2018-11-05T00:39:15.210Z,14.13
2018-11-05T00:41:43.094Z,15.55
2018-11-05T00:44:14.782Z,14.28
2018-11-05T00:46:42.775Z,14.65
2018-11-05T00:49:10.194Z,15.95
2018-11-05T00:51:37.586Z,14.98
2018-11-05T00:54:06.404Z,15.53
2018-11-05T00:56:34.528Z,14.68
2018-11-05T00:59:01.943Z,13.55
2018-11-05T01:01:29.466Z,15.30
2018-11-05T01:03:56.873Z,14.60
2018-11-05T01:06:25.281Z,14.38
2018-11-05T01:08:53.233Z,15.83
2018-11-05T01:11:20.808Z,15.65
2018-11-05T01:13:48.331Z,14.90
2018-11-05T01:16:15.938Z,16.23
2018-11-05T01:18:43.918Z,16.17
2018-11-05T01:21:11.474Z,15.75
2018-11-05T01:23:38.889Z,14.15
2018-11-05T01:26:06.325Z,14.87
2018-11-05T01:28:33.814Z,15.30
2018-11-05T01:31:01.333Z,14.15
2018-11-05T01:33:29.479Z,14.87
2018-11-05T01:35:57.340Z,13.53
2018-11-05T01:38:24.680Z,16.30
2018-11-05T01:40:52.594Z,16.75
2018-11-05T01:43:19.975Z,17.50
2018-11-05T01:45:47.375Z,15.70
2018-11-05T01:48:14.718Z,15.05
2018-11-05T01:50:43.435Z,16.82
2018-11-05T01:53:11.061Z,16.90
2018-11-05T01:55:38.553Z,16.90
2018-11-05T01:58:06.454Z,15.55
2018-11-05T02:00:33.857Z,14.95
2018-11-05T02:03:02.192Z,15.58
2018-11-05T02:05:29.583Z,16.17
2018-11-05T02:07:57.119Z,15.50
2018-11-05T02:10:25.308Z,17.40
2018-11-05T02:12:52.631Z,15.65
2018-11-05T02:15:19.962Z,14.90
2018-11-05T02:17:48.064Z,14.90
2018-11-05T02:20:16.381Z,15.10
2018-11-05T02:22:44.722Z,17.32
2018-11-05T02:25:16.788Z,14.78
2018-11-05T02:27:44.199Z,15.10
2018-11-05T02:30:13.644Z,15.75
2018-11-05T02:32:41.119Z,16.30
2018-11-05T02:35:11.615Z,16.77
2018-11-05T02:37:39.950Z,16.82
2018-11-05T02:40:08.583Z,15.40
2018-11-05T02:42:36.419Z,15.68
2018-11-05T02:45:04.186Z,15.85
2018-11-05T02:47:31.724Z,14.58
2018-11-05T02:49:59.145Z,15.85
2018-11-05T02:52:26.663Z,16.70
2018-11-05T02:54:54.098Z,15.88
2018-11-05T02:57:21.502Z,16.37
2018-11-05T02:59:48.828Z,14.55
2018-11-05T03:02:16.579Z,15.23
2018-11-05T03:04:44.836Z,15.08
2018-11-05T03:07:12.226Z,14.83
2018-11-05T03:09:39.850Z,15.38
2018-11-05T03:12:07.342Z,14.78
2018-11-05T03:14:34.714Z,15.28
2018-11-05T03:17:02.951Z,14.07
2018-11-05T03:19:30.324Z,16.42
2018-11-05T03:21:57.675Z,16.40
2018-11-05T03:24:25.810Z,17.25
2018-11-05T03:26:53.185Z,16.15
2018-11-05T03:29:29.955Z,15.40
2018-11-05T03:31:57.306Z,17.67
2018-11-05T03:34:24.780Z,15.75
2018-11-05T03:36:52.239Z,16.50
2018-11-05T03:39:20.521Z,16.02
2018-11-05T03:41:47.935Z,16.25
2018-11-05T03:44:15.999Z,17.77
2018-11-05T03:46:43.448Z,15.48
2018-11-05T03:49:11.118Z,16.20
2018-11-05T03:51:38.535Z,15.90
2018-11-05T03:54:06.302Z,16.95
2018-11-05T03:56:33.933Z,15.65
2018-11-05T03:59:01.507Z,17.40
2018-11-05T04:01:28.937Z,16.82
2018-11-05T04:03:57.878Z,17.62
2018-11-05T04:06:25.314Z,17.17
2018-11-05T04:08:52.727Z,18.55
2018-11-05T04:11:20.235Z,17.67
2018-11-05T04:13:47.936Z,18.40
2018-11-05T04:16:15.339Z,18.25
2018-11-05T04:18:43.199Z,18.45
2018-11-05T04:21:10.569Z,18.75
2018-11-05T04:23:38.830Z,17.67
2018-11-05T04:26:06.192Z,16.62
2018-11-05T04:28:39.010Z,17.55
2018-11-05T04:31:07.132Z,17.20
2018-11-05T04:33:34.626Z,17.27
2018-11-05T04:36:02.067Z,15.25
2018-11-05T04:38:29.648Z,18.57
2018-11-05T04:40:57.259Z,18.87
2018-11-05T04:43:26.111Z,17.50
2018-11-05T04:45:53.603Z,17.12
2018-11-05T04:48:21.637Z,17.40
2018-11-05T04:50:49.026Z,18.48
2018-11-05T04:53:16.422Z,18.37
2018-11-05T04:55:43.824Z,19.30
2018-11-05T04:58:11.326Z,19.00
2018-11-05T05:00:39.742Z,20.48
2018-11-05T05:03:09.685Z,18.85
2018-11-05T05:05:37.152Z,19.95
2018-11-05T05:08:04.508Z,18.57
2018-11-05T05:10:32.125Z,18.55
2018-11-05T05:13:00.068Z,20.25
2018-11-05T05:15:27.738Z,19.80
2018-11-05T05:17:55.171Z,18.30
2018-11-05T05:20:22.609Z,19.23
2018-11-05T05:22:50.314Z,18.95
2018-11-05T05:25:17.803Z,19.52
2018-11-05T05:27:45.198Z,18.90
2018-11-05T05:30:17.377Z,19.15
2018-11-05T05:32:46.517Z,20.23
2018-11-05T05:35:14.135Z,17.00
2018-11-05T05:37:42.275Z,19.32
2018-11-05T05:40:10.395Z,18.60
2018-11-05T05:42:39.555Z,17.45
2018-11-05T05:45:08.705Z,19.95
2018-11-05T05:47:40.768Z,20.45
2018-11-05T05:50:11.059Z,19.95
2018-11-05T05:52:38.451Z,20.08
2018-11-05T05:55:05.830Z,20.12
2018-11-05T05:57:33.262Z,19.30
2018-11-05T06:00:05.208Z,20.35
2018-11-05T06:02:33.044Z,18.57
2018-11-05T06:05:00.594Z,19.25
2018-11-05T06:07:28.844Z,19.95
2018-11-05T06:09:56.388Z,21.15
2018-11-05T06:12:23.821Z,19.50
2018-11-05T06:14:51.595Z,20.65
2018-11-05T06:17:19.007Z,20.23
2018-11-05T06:19:46.327Z,21.30
2018-11-05T06:22:13.733Z,18.87
2018-11-05T06:24:41.126Z,18.12
2018-11-05T06:27:08.522Z,18.25
2018-11-05T06:29:36.234Z,19.73
2018-11-05T06:32:04.362Z,17.73
2018-11-05T06:34:31.714Z,18.98
2018-11-05T06:36:59.798Z,18.25
2018-11-05T06:39:27.194Z,17.85
2018-11-05T06:41:55.039Z,19.45
2018-11-05T06:44:22.320Z,18.12
2018-11-05T06:46:49.609Z,19.92
2018-11-05T06:49:16.930Z,18.35
2018-11-05T06:51:44.301Z,17.98
2018-11-05T06:54:11.907Z,17.90
2018-11-05T06:56:39.322Z,18.92
2018-11-05T06:59:06.638Z,17.65
2018-11-05T07:01:34.630Z,18.17
2018-11-05T07:04:02.147Z,17.50
2018-11-05T07:06:29.441Z,16.57
2018-11-05T07:08:57.153Z,18.23
2018-11-05T07:11:24.489Z,19.15
2018-11-05T07:13:51.791Z,18.32
2018-11-05T07:16:19.098Z,18.30
2018-11-05T07:18:46.712Z,16.82
2018-11-05T07:21:14.459Z,19.55
2018-11-05T07:23:41.786Z,19.77
2018-11-05T07:26:09.190Z,17.70
2018-11-05T07:28:36.839Z,18.80
2018-11-05T07:31:04.431Z,18.02
2018-11-05T07:33:31.871Z,17.45
2018-11-05T07:35:59.628Z,17.37
2018-11-05T07:38:27.324Z,16.45
2018-11-05T07:40:54.762Z,17.55
2018-11-05T07:43:22.134Z,18.50
2018-11-05T07:45:49.537Z,16.45
2018-11-05T07:48:17.737Z,16.00
2018-11-05T07:50:45.580Z,17.52
2018-11-05T07:53:12.934Z,18.25
2018-11-05T07:55:40.206Z,16.15
2018-11-05T07:58:08.385Z,16.15
2018-11-05T08:00:41.198Z,15.90
2018-11-05T08:03:08.598Z,16.10
2018-11-05T08:05:35.943Z,16.55
2018-11-05T08:08:03.303Z,17.15
2018-11-05T08:10:30.645Z,16.12
2018-11-05T08:12:58.782Z,17.35
2018-11-05T08:15:26.464Z,15.40
2018-11-05T08:17:54.164Z,16.37
2018-11-05T08:20:21.466Z,14.87
2018-11-05T08:22:48.866Z,16.10
2018-11-05T08:25:17.006Z,17.77
2018-11-05T08:27:45.215Z,14.80
2018-11-05T08:30:17.619Z,15.90
2018-11-05T08:32:44.995Z,17.20
2018-11-05T08:35:13.344Z,16.10
2018-11-05T08:37:41.642Z,15.40
2018-11-05T08:40:09.861Z,15.90
2018-11-05T08:42:37.199Z,15.05
2018-11-05T08:45:05.104Z,17.05
2018-11-05T08:47:32.501Z,16.80
2018-11-05T08:49:59.830Z,15.88
2018-11-05T08:52:27.769Z,15.95
2018-11-05T08:54:55.314Z,14.78
2018-11-05T08:57:22.679Z,15.30
2018-11-05T08:59:50.060Z,14.83
2018-11-05T09:02:17.357Z,14.98
2018-11-05T09:04:44.753Z,14.15
2018-11-05T09:07:12.166Z,15.10
2018-11-05T09:09:40.008Z,15.72
2018-11-05T09:12:07.545Z,16.73
2018-11-05T09:14:34.884Z,14.83
2018-11-05T09:17:03.032Z,14.90
2018-11-05T09:19:30.439Z,15.15
2018-11-05T09:21:57.731Z,13.70
2018-11-05T09:24:25.636Z,13.80
2018-11-05T09:26:53.060Z,14.23
2018-11-05T09:29:20.472Z,15.08
2018-11-05T09:31:47.879Z,14.25
2018-11-05T09:34:16.022Z,13.10
2018-11-05T09:36:43.315Z,14.70
2018-11-05T09:39:10.807Z,13.78
2018-11-05T09:41:38.118Z,14.85
2018-11-05T09:44:05.450Z,14.45
2018-11-05T09:46:32.764Z,14.45
2018-11-05T09:49:00.143Z,15.32
2018-11-05T09:51:27.458Z,13.50
2018-11-05T09:53:54.780Z,13.13
2018-11-05T09:56:22.123Z,14.03
2018-11-05T09:58:49.494Z,14.20
2018-11-05T10:01:16.807Z,14.07
2018-11-05T10:03:49.477Z,14.10
2018-11-05T10:06:17.480Z,13.00
2018-11-05T10:08:44.927Z,14.65
2018-11-05T10:11:12.259Z,12.58
2018-11-05T10:13:39.727Z,12.75
2018-11-05T10:16:07.790Z,14.45
2018-11-05T10:18:35.079Z,13.30
2018-11-05T10:21:02.480Z,13.83
2018-11-05T10:23:29.756Z,14.25
2018-11-05T10:25:57.064Z,15.48
2018-11-05T10:28:24.379Z,13.98
2018-11-05T10:30:52.535Z,14.10
2018-11-05T10:33:19.912Z,14.93
2018-11-05T10:35:52.572Z,13.45
2018-11-05T10:38:19.876Z,14.18
2018-11-05T10:40:47.322Z,13.88
2018-11-05T10:43:15.315Z,12.82
2018-11-05T10:45:42.650Z,14.13
2018-11-05T10:48:09.960Z,13.10
2018-11-05T10:50:37.631Z,13.88
2018-11-05T10:53:06.571Z,14.47
2018-11-05T10:55:33.970Z,13.58
2018-11-05T10:58:01.385Z,13.65
2018-11-05T11:00:34.182Z,13.62
2018-11-05T11:03:07.170Z,13.45
2018-11-05T11:05:35.456Z,13.60
2018-11-05T11:08:03.334Z,12.43
2018-11-05T11:12:58.255Z,13.75
2018-11-05T11:15:30.571Z,12.78
2018-11-05T11:17:59.172Z,14.98
2018-11-05T11:20:26.507Z,12.53
2018-11-05T11:22:54.074Z,13.35
2018-11-05T11:25:21.571Z,13.43
2018-11-05T11:27:49.005Z,13.58
2018-11-05T11:30:17.032Z,13.53
2018-11-05T11:32:44.910Z,14.20
2018-11-05T11:35:13.231Z,13.90
2018-11-05T11:37:40.868Z,13.28
2018-11-05T11:40:08.945Z,13.15
2018-11-05T11:42:36.686Z,13.03
2018-11-05T11:45:04.306Z,14.83
2018-11-05T11:47:32.176Z,13.40
2018-11-05T11:49:59.693Z,12.70
2018-11-05T11:52:27.277Z,14.55
2018-11-05T11:54:54.603Z,13.55
2018-11-05T11:57:22.239Z,13.95
2018-11-05T11:59:49.674Z,13.98
2018-11-05T12:02:18.243Z,14.53
2018-11-05T12:04:46.467Z,13.15
2018-11-05T12:07:13.968Z,13.55
2018-11-05T12:09:41.398Z,13.98
2018-11-05T12:12:10.338Z,14.40
2018-11-05T12:14:37.991Z,12.60
2018-11-05T12:17:05.856Z,14.38
2018-11-05T12:19:33.771Z,13.85
2018-11-05T12:22:01.293Z,11.85
2018-11-05T12:24:28.705Z,12.58
2018-11-05T12:26:56.098Z,12.88
2018-11-05T12:29:23.505Z,14.87
2018-11-05T12:31:50.988Z,12.88
2018-11-05T12:34:18.354Z,13.38
2018-11-05T12:36:45.813Z,13.78
2018-11-05T12:39:13.372Z,13.80
2018-11-05T12:41:41.379Z,14.10
2018-11-05T12:44:09.761Z,14.63
2018-11-05T12:46:38.311Z,14.10
2018-11-05T12:49:05.822Z,15.08
2018-11-05T12:51:33.312Z,14.35
2018-11-05T12:54:01.427Z,13.72
2018-11-05T12:56:28.821Z,15.13
2018-11-05T12:58:56.081Z,14.53
2018-11-05T13:01:23.653Z,15.43
2018-11-05T13:03:50.994Z,15.08
2018-11-05T13:06:18.993Z,13.93
2018-11-05T13:08:46.328Z,14.35
2018-11-05T13:11:14.258Z,14.13
2018-11-05T13:13:41.738Z,16.48
2018-11-05T13:16:09.118Z,15.30
2018-11-05T13:18:36.419Z,15.05
2018-11-05T13:21:04.426Z,14.40
2018-11-05T13:23:43.360Z,15.30
2018-11-05T13:26:11.156Z,15.68
2018-11-05T13:28:38.950Z,13.60
2018-11-05T13:31:06.606Z,15.30
2018-11-05T13:33:33.996Z,16.75
2018-11-05T13:36:01.293Z,15.08
2018-11-05T13:38:28.641Z,16.17
2018-11-05T13:40:56.006Z,15.10
2018-11-05T13:43:23.313Z,15.93
2018-11-05T13:45:50.994Z,15.78
2018-11-05T13:48:18.394Z,14.80
2018-11-05T13:50:45.350Z,15.43
2018-11-05T13:53:12.722Z,15.80
2018-11-05T13:55:40.086Z,14.95
2018-11-05T13:58:07.485Z,17.20
2018-11-05T14:00:34.870Z,15.95
2018-11-05T14:03:02.360Z,14.58
2018-11-05T14:05:30.178Z,17.27
2018-11-05T14:07:57.534Z,17.35
2018-11-05T14:10:24.883Z,17.05
2018-11-05T14:12:53.022Z,15.78
2018-11-05T14:15:20.719Z,17.20
2018-11-05T14:17:48.124Z,17.40
2018-11-05T14:20:17.479Z,16.35
2018-11-05T14:22:44.825Z,15.53
2018-11-05T14:25:13.769Z,17.40
2018-11-05T14:27:41.973Z,18.25
2018-11-05T14:30:10.420Z,16.82
2018-11-05T14:32:37.971Z,18.55
2018-11-05T14:35:06.073Z,16.50
2018-11-05T14:37:33.492Z,18.20
2018-11-05T14:40:01.015Z,17.35
2018-11-05T14:42:28.416Z,18.30
2018-11-05T14:44:55.729Z,16.15
2018-11-05T14:47:23.031Z,17.35
2018-11-05T14:49:50.448Z,15.95
2018-11-05T14:52:17.858Z,16.17
2018-11-05T14:54:45.338Z,15.50
2018-11-05T14:57:12.687Z,15.83
2018-11-05T14:59:39.959Z,15.65
2018-11-05T15:02:12.743Z,17.00
2018-11-05T15:04:40.102Z,16.73
2018-11-05T15:07:08.506Z,16.65
2018-11-05T15:09:36.003Z,16.12
2018-11-05T15:12:03.298Z,16.20
2018-11-05T15:14:30.595Z,15.28
2018-11-05T15:16:57.913Z,15.45
2018-11-05T15:19:25.571Z,18.02
2018-11-05T15:21:52.617Z,16.45
2018-11-05T15:24:20.252Z,17.30
2018-11-05T15:26:47.836Z,17.98
2018-11-05T15:29:15.055Z,19.65
2018-11-05T15:31:42.442Z,21.55
2018-11-05T15:34:09.847Z,19.40
2018-11-05T15:36:37.654Z,19.55
2018-11-05T15:39:06.394Z,22.50
2018-11-05T15:41:34.203Z,19.73
2018-11-05T15:44:01.549Z,18.70
2018-11-05T15:46:29.569Z,18.77
2018-11-05T15:48:56.967Z,20.77
2018-11-05T15:51:24.546Z,25.37
2018-11-05T15:53:51.779Z,26.95
2018-11-05T15:56:19.178Z,27.50
2018-11-05T15:58:46.547Z,23.57
2018-11-05T16:01:14.697Z,23.12
2018-11-05T16:03:42.078Z,19.40
2018-11-05T16:06:09.687Z,17.30
2018-11-05T16:08:37.169Z,17.70
2018-11-05T16:11:04.503Z,17.12
2018-11-05T16:13:32.803Z,16.82
2018-11-05T16:16:00.104Z,17.55
2018-11-05T16:18:27.449Z,17.27
2018-11-05T16:20:54.808Z,17.82
2018-11-05T16:23:22.769Z,16.20
2018-11-05T16:25:50.153Z,18.23
2018-11-05T16:28:18.129Z,16.40
2018-11-05T16:30:45.505Z,16.15
2018-11-05T16:33:12.795Z,16.62
2018-11-05T16:35:40.576Z,14.98
2018-11-05T16:38:08.289Z,15.23
2018-11-05T16:40:35.614Z,15.32
2018-11-05T16:43:03.091Z,16.80
2018-11-05T16:45:30.422Z,17.07
2018-11-05T16:47:58.636Z,17.52
2018-11-05T16:50:27.065Z,18.23
2018-11-05T16:52:54.568Z,16.55
2018-11-05T16:55:22.058Z,16.20
2018-11-05T16:57:49.443Z,18.02
2018-11-05T17:00:17.250Z,18.55
2018-11-05T17:02:45.538Z,17.23
2018-11-05T17:05:12.846Z,18.45
2018-11-05T17:07:40.338Z,19.42
2018-11-05T17:10:08.610Z,17.62
2018-11-05T17:12:37.082Z,20.57
2018-11-05T17:15:05.541Z,19.60
2018-11-05T17:17:32.942Z,21.17
2018-11-05T17:20:00.828Z,24.40
2018-11-05T17:22:28.245Z,25.40
2018-11-05T17:24:55.677Z,21.65
2018-11-05T17:27:23.068Z,22.85
2018-11-05T17:29:50.496Z,25.85
2018-11-05T17:32:17.899Z,27.30
2018-11-05T17:34:45.494Z,29.67
2018-11-05T17:37:12.835Z,26.05
2018-11-05T17:39:40.191Z,24.50
2018-11-05T17:42:07.565Z,22.48
2018-11-05T17:44:35.033Z,22.37
2018-11-05T17:47:02.452Z,22.52
2018-11-05T17:49:29.884Z,22.45
2018-11-05T17:51:57.337Z,21.57
2018-11-05T17:54:24.726Z,22.22
2018-11-05T17:56:52.223Z,27.07
2018-11-05T17:59:19.684Z,27.05
2018-11-05T18:01:47.330Z,24.65
2018-11-05T18:04:14.886Z,22.07
2018-11-05T18:06:42.249Z,22.95
2018-11-05T18:09:10.137Z,22.48
2018-11-05T18:11:38.495Z,22.45
2018-11-05T18:14:06.546Z,24.20
2018-11-05T18:16:34.039Z,24.02
2018-11-05T18:19:01.585Z,24.77
2018-11-05T18:21:29.016Z,23.70
2018-11-05T18:23:56.661Z,23.60
2018-11-05T18:26:24.060Z,26.30
2018-11-05T18:28:51.502Z,22.70
2018-11-05T18:31:19.526Z,22.62
2018-11-05T18:33:46.880Z,23.12
2018-11-05T18:36:14.547Z,21.10
2018-11-05T18:38:41.946Z,22.45
2018-11-05T18:41:09.410Z,23.05
2018-11-05T18:43:36.874Z,22.67
2018-11-05T18:46:04.305Z,23.92
2018-11-05T18:48:33.001Z,20.70
2018-11-05T18:51:00.928Z,20.70
2018-11-05T18:53:28.766Z,19.37
2018-11-05T18:55:56.439Z,20.70
2018-11-05T18:58:24.073Z,28.80
2018-11-05T19:00:52.245Z,25.92
2018-11-05T19:03:20.163Z,28.70
2018-11-05T19:05:47.948Z,28.10
2018-11-05T19:08:16.374Z,28.47
2018-11-05T19:10:44.329Z,26.90
2018-11-05T19:13:12.031Z,28.52
2018-11-05T19:15:39.780Z,27.52
2018-11-05T19:18:07.833Z,30.75
2018-11-05T19:20:35.204Z,31.45
2018-11-05T19:23:02.987Z,28.15
2018-11-05T19:25:30.176Z,29.95
2018-11-05T19:27:57.539Z,29.85
2018-11-05T19:30:26.378Z,30.32
2018-11-05T19:32:54.430Z,29.70
2018-11-05T19:35:21.885Z,27.00
2018-11-05T19:37:49.504Z,28.25
2018-11-05T19:40:17.789Z,28.62
2018-11-05T19:42:46.983Z,28.52
2018-11-05T19:45:20.051Z,27.20
2018-11-05T19:47:47.525Z,31.85
2018-11-05T19:50:16.297Z,33.00
2018-11-05T19:52:44.687Z,30.05
2018-11-05T19:55:13.302Z,30.57
2018-11-05T19:57:41.830Z,29.42
2018-11-05T20:00:14.624Z,32.63
2018-11-05T20:02:42.084Z,31.85
2018-11-05T20:05:09.574Z,32.60
2018-11-05T20:07:37.062Z,32.50
2018-11-05T20:10:04.957Z,33.25
2018-11-05T20:12:32.761Z,32.45
2018-11-05T20:15:00.331Z,34.65
2018-11-05T20:17:27.770Z,31.50
2018-11-05T20:19:55.239Z,31.57
2018-11-05T20:22:22.829Z,30.85
2018-11-05T20:24:50.155Z,29.52
2018-11-05T20:27:18.402Z,28.70
2018-11-05T20:29:46.552Z,27.20
2018-11-05T20:32:14.157Z,28.98
2018-11-05T20:34:42.013Z,29.00
2018-11-05T20:37:09.370Z,28.35
2018-11-05T20:39:37.537Z,27.58
2018-11-05T20:42:05.347Z,26.73
2018-11-05T20:44:32.892Z,27.95
2018-11-05T20:47:00.386Z,27.10
2018-11-05T20:49:28.093Z,29.40
2018-11-05T20:51:55.578Z,27.48
2018-11-05T20:54:23.289Z,26.42
2018-11-05T20:56:50.796Z,26.15
2018-11-05T20:59:18.336Z,25.23
2018-11-05T21:01:45.908Z,26.17
2018-11-05T21:04:13.583Z,25.25
2018-11-05T21:06:41.271Z,23.85
2018-11-05T21:09:09.545Z,26.10
2018-11-05T21:11:37.054Z,25.12
2018-11-05T21:14:04.494Z,23.30
2018-11-05T21:16:31.931Z,25.82
2018-11-05T21:18:59.302Z,25.85
2018-11-05T21:21:27.184Z,24.12
2018-11-05T21:23:54.564Z,24.40
2018-11-05T21:26:21.988Z,23.65
2018-11-05T21:28:49.539Z,24.25
2018-11-05T21:31:16.942Z,23.00
2018-11-05T21:33:44.979Z,22.05
2018-11-05T21:36:12.993Z,22.42
2018-11-05T21:38:40.546Z,23.30
2018-11-05T21:41:08.559Z,24.70
2018-11-05T21:43:36.126Z,22.27
2018-11-05T21:46:04.168Z,25.60
2018-11-05T21:48:31.605Z,23.32
2018-11-05T21:50:59.153Z,24.32
2018-11-05T21:53:26.555Z,22.20
2018-11-05T21:55:58.201Z,24.18
2018-11-05T21:58:30.226Z,21.73
2018-11-05T22:00:58.213Z,20.90
2018-11-05T22:03:25.729Z,22.15
2018-11-05T22:05:53.286Z,23.20
2018-11-05T22:08:21.215Z,22.05
2018-11-05T22:10:48.610Z,25.30
2018-11-05T22:13:16.145Z,24.37
2018-11-05T22:15:46.539Z,22.85
2018-11-05T22:18:14.631Z,22.82
2018-11-05T22:20:42.022Z,21.52
2018-11-05T22:23:09.905Z,22.60
2018-11-05T22:25:37.346Z,22.82
2018-11-05T22:28:05.099Z,22.75
2018-11-05T22:30:40.628Z,21.35
2018-11-05T22:33:08.926Z,22.32
2018-11-05T22:35:37.110Z,21.85
2018-11-05T22:38:04.784Z,21.73
2018-11-05T22:40:32.205Z,21.65
2018-11-05T22:42:59.611Z,21.07
2018-11-05T22:45:26.969Z,21.42
2018-11-05T22:47:55.205Z,21.60
2018-11-05T22:50:22.703Z,21.48
2018-11-05T22:52:50.098Z,20.77
2018-11-05T22:55:17.629Z,17.92
2018-11-05T22:57:45.019Z,21.33
2018-11-05T23:00:20.116Z,21.00
2018-11-05T23:02:52.756Z,19.85
2018-11-05T23:05:20.546Z,19.73
2018-11-05T23:07:47.990Z,19.87
2018-11-05T23:10:15.314Z,19.40
2018-11-05T23:12:42.752Z,19.73
2018-11-05T23:15:10.201Z,20.32
2018-11-05T23:17:37.628Z,20.65
2018-11-05T23:20:05.445Z,20.52
2018-11-05T23:22:32.836Z,20.10
2018-11-05T23:25:00.234Z,19.57
2018-11-05T23:27:28.162Z,19.42
2018-11-05T23:29:55.681Z,16.85
2018-11-05T23:32:23.906Z,18.90
2018-11-05T23:34:51.303Z,20.02
2018-11-05T23:37:19.725Z,21.82
2018-11-05T23:39:47.254Z,20.70
2018-11-05T23:42:15.950Z,19.45
2018-11-05T23:44:43.326Z,19.10
2018-11-05T23:47:10.755Z,22.30
2018-11-05T23:49:38.475Z,19.75
2018-11-05T23:52:05.924Z,18.40
2018-11-05T23:54:33.275Z,18.25
2018-11-05T23:57:01.008Z,19.55
2018-11-05T23:59:28.398Z,19.82
